Time;durP1;ratioP1;P1;durP2;ratioP2;P2;SDS_P1;SDS_P2;PMS_P1;PMS_P2;Temp;Humidity;BMP_temperature;BMP_pressure;BME280_temperature;BME280_humidity;BME280_pressure;Samples;Min_cycle;Max_cycle;Signal;HPM_P1;HPM_P2
2023/07/27 00:00:13;;;;;;;0.10;0.00;;;;;;;21.98;100.00;98374.03;7393673;19;20389;-65
2023/07/27 00:02:42;;;;;;;0.10;0.10;;;;;;;22.09;100.00;98359.28;7394391;19;20015;-65
2023/07/27 00:05:08;;;;;;;0.10;0.00;;;;;;;22.16;100.00;98361.25;7394570;19;20007;-65
2023/07/27 00:07:34;;;;;;;0.77;0.08;;;;;;;22.26;100.00;98359.19;7394138;19;20035;-64
2023/07/27 00:10:00;;;;;;;0.08;0.00;;;;;;;22.20;100.00;98364.41;7391707;19;20022;-64
2023/07/27 00:12:26;;;;;;;0.10;0.00;;;;;;;22.17;100.00;98354.25;7395059;19;20030;-65
2023/07/27 00:14:53;;;;;;;0.10;0.10;;;;;;;22.29;100.00;98349.50;7394958;19;20010;-65
2023/07/27 00:17:19;;;;;;;3.50;0.10;;;;;;;22.22;100.00;98353.19;7397247;19;20017;-65
2023/07/27 00:19:45;;;;;;;0.20;0.10;;;;;;;22.11;100.00;98345.25;7393305;19;20096;-66
2023/07/27 00:22:11;;;;;;;0.30;0.22;;;;;;;22.21;100.00;98348.88;7393859;19;20002;-65
2023/07/27 00:24:37;;;;;;;0.20;0.20;;;;;;;22.23;100.00;98345.44;7393270;19;20404;-64
2023/07/27 00:27:04;;;;;;;5.53;0.30;;;;;;;22.39;100.00;98347.44;7392667;19;20007;-64
2023/07/27 00:29:30;;;;;;;1.75;0.00;;;;;;;22.51;100.00;98336.25;7391588;19;20486;-63
2023/07/27 00:31:56;;;;;;;0.15;0.05;;;;;;;23.27;100.00;98330.63;7391368;19;20470;-62
2023/07/27 00:34:22;;;;;;;0.63;0.20;;;;;;;22.20;100.00;98340.97;7392056;19;20010;-62
2023/07/27 00:36:49;;;;;;;0.15;0.15;;;;;;;22.47;100.00;98331.03;7392248;19;20015;-61
2023/07/27 00:39:15;;;;;;;3.25;0.45;;;;;;;22.26;100.00;98333.66;7391520;19;20451;-63
2023/07/27 00:41:42;;;;;;;0.30;0.15;;;;;;;22.77;100.00;98323.31;7393103;19;20018;-63
2023/07/27 00:44:09;;;;;;;0.40;0.20;;;;;;;22.48;100.00;98321.16;7392848;19;20022;-63
2023/07/27 00:46:37;;;;;;;2.65;0.20;;;;;;;22.73;100.00;98317.34;7390887;19;20355;-62
2023/07/27 00:49:03;;;;;;;0.20;0.20;;;;;;;22.56;100.00;98321.78;7398222;19;20014;-62
2023/07/27 00:51:40;;;;;;;0.10;0.10;;;;;;;22.29;100.00;98321.13;7398673;19;20018;-63
2023/07/27 00:54:08;;;;;;;0.00;0.00;;;;;;;22.82;100.00;98319.44;7397773;19;20039;-64
2023/07/27 00:56:37;;;;;;;0.10;0.00;;;;;;;22.27;100.00;98318.16;7397551;19;20027;-65
2023/07/27 00:59:04;;;;;;;0.35;0.00;;;;;;;21.95;100.00;98310.00;7397761;19;20013;-64
2023/07/27 01:01:32;;;;;;;0.10;0.10;;;;;;;22.40;100.00;98303.53;7399297;19;20027;-62
2023/07/27 01:03:58;;;;;;;1.30;0.63;;;;;;;22.52;100.00;98304.44;7398905;19;20022;-63
2023/07/27 01:06:25;;;;;;;0.05;0.05;;;;;;;25.32;100.00;98297.75;7397412;19;20386;-63
2023/07/27 01:08:52;;;;;;;0.00;0.00;;;;;;;23.87;100.00;98291.56;7398391;19;20165;-63
2023/07/27 01:11:46;;;;;;;0.30;0.20;;;;;;;22.54;100.00;98290.41;7398277;19;20411;-63
2023/07/27 01:14:30;;;;;;;0.10;0.10;;;;;;;22.06;100.00;98280.34;7396625;19;20025;-63
2023/07/27 01:17:03;;;;;;;0.00;0.00;;;;;;;22.94;100.00;98283.41;7401605;19;20038;-64
2023/07/27 01:20:09;;;;;;;0.20;0.20;;;;;;;23.93;100.00;98277.78;7398332;19;20039;-64
2023/07/27 01:23:00;;;;;;;0.00;0.00;;;;;;;24.84;100.00;98264.75;7399118;19;20048;-64
2023/07/27 01:25:46;;;;;;;0.00;0.00;;;;;;;24.71;100.00;98264.56;7397927;19;20014;-63
2023/07/27 01:28:34;;;;;;;0.00;0.00;;;;;;;22.41;100.00;98271.00;7397746;19;20363;-65
2023/07/27 01:31:15;;;;;;;0.20;0.20;;;;;;;22.20;100.00;98255.91;7394255;19;20042;-64
2023/07/27 01:33:48;;;;;;;0.08;0.00;;;;;;;22.37;100.00;98265.00;7398557;19;20459;-63
2023/07/27 01:36:21;;;;;;;0.10;0.05;;;;;;;21.91;100.00;98255.84;7396231;19;20036;-64
2023/07/27 01:38:50;;;;;;;0.10;0.00;;;;;;;23.84;100.00;98249.41;7400061;19;20039;-62
2023/07/27 01:41:17;;;;;;;0.10;0.00;;;;;;;22.54;100.00;98256.34;7397246;19;20014;-62
2023/07/27 01:43:45;;;;;;;0.10;0.00;;;;;;;23.51;100.00;98254.94;7400398;19;20011;-62
2023/07/27 01:46:13;;;;;;;0.10;0.00;;;;;;;22.79;100.00;98258.19;7396976;19;20219;-61
2023/07/27 01:48:41;;;;;;;0.50;0.20;;;;;;;22.85;100.00;98250.13;7399606;19;20019;-62
2023/07/27 01:51:09;;;;;;;0.13;0.10;;;;;;;23.24;100.00;98240.16;7396721;19;20018;-62
2023/07/27 01:53:37;;;;;;;0.10;0.00;;;;;;;24.08;100.00;98245.41;7396904;19;20026;-63
2023/07/27 01:56:05;;;;;;;0.10;0.10;;;;;;;24.87;100.00;98239.25;7397466;19;20007;-61
2023/07/27 01:58:34;;;;;;;0.88;0.08;;;;;;;22.80;100.00;98237.72;7396880;19;20355;-62
2023/07/27 02:01:01;;;;;;;0.10;0.00;;;;;;;22.30;100.00;98237.56;7394936;19;20017;-61
2023/07/27 02:03:29;;;;;;;0.08;0.08;;;;;;;22.23;100.00;98240.50;7396238;19;20015;-61
2023/07/27 02:06:00;;;;;;;0.57;0.10;;;;;;;22.30;100.00;98236.81;7395634;19;20412;-60
2023/07/27 02:08:26;;;;;;;0.00;0.00;;;;;;;22.26;100.00;98230.81;7398090;19;20010;-62
2023/07/27 02:11:02;;;;;;;0.08;0.00;;;;;;;22.34;100.00;98226.50;7392806;19;20011;-62
2023/07/27 02:13:35;;;;;;;0.10;0.00;;;;;;;22.17;100.00;98226.63;7400058;19;20011;-61
2023/07/27 02:16:10;;;;;;;0.10;0.00;;;;;;;22.57;100.00;98232.47;7396422;19;20096;-62
2023/07/27 02:18:37;;;;;;;0.10;0.00;;;;;;;23.61;100.00;98230.03;7399674;19;20043;-62
2023/07/27 02:21:07;;;;;;;0.03;0.03;;;;;;;22.24;100.00;98222.91;7395024;19;20018;-62
2023/07/27 02:23:34;;;;;;;0.50;0.08;;;;;;;22.09;100.00;98220.34;7396510;19;20449;-62
2023/07/27 02:26:01;;;;;;;0.00;0.00;;;;;;;20.31;100.00;98225.31;7394651;19;20018;-62
2023/07/27 02:28:28;;;;;;;0.00;0.00;;;;;;;18.95;100.00;98227.75;7396771;19;20014;-62
2023/07/27 02:30:55;;;;;;;0.00;0.00;;;;;;;18.10;100.00;98229.31;7394364;19;20025;-63
2023/07/27 02:33:21;;;;;;;0.50;0.10;;;;;;;18.07;100.00;98219.19;7394624;19;20034;-63
2023/07/27 02:35:47;;;;;;;0.10;0.00;;;;;;;18.09;100.00;98218.63;7395200;19;20091;-63
2023/07/27 02:38:13;;;;;;;0.20;0.10;;;;;;;19.11;100.00;98221.41;7396866;19;20006;-62
2023/07/27 02:40:39;;;;;;;0.03;0.00;;;;;;;18.87;100.00;98213.66;7394785;19;20066;-62
2023/07/27 02:43:07;;;;;;;0.10;0.10;;;;;;;18.65;100.00;98217.34;7397438;19;20492;-62
2023/07/27 02:45:34;;;;;;;0.45;0.00;;;;;;;18.81;100.00;98210.31;7394034;19;20006;-61
2023/07/27 02:48:00;;;;;;;0.00;0.00;;;;;;;19.08;100.00;98205.63;7396366;19;20351;-62
2023/07/27 02:50:26;;;;;;;0.80;0.10;;;;;;;19.68;100.00;98205.19;7392729;19;20021;-62
2023/07/27 02:52:59;;;;;;;0.10;0.00;;;;;;;19.21;100.00;98213.81;7394880;19;20021;-62
2023/07/27 02:55:25;;;;;;;0.10;0.10;;;;;;;19.33;100.00;98214.88;7394264;19;20010;-62
2023/07/27 02:57:53;;;;;;;0.10;0.00;;;;;;;18.77;100.00;98216.34;7395890;19;20006;-63
2023/07/27 03:00:19;;;;;;;0.75;0.00;;;;;;;18.50;100.00;98214.56;7394392;19;20014;-62
2023/07/27 03:02:48;;;;;;;0.00;0.00;;;;;;;18.67;100.00;98211.88;7393904;19;20023;-63
2023/07/27 03:05:14;;;;;;;0.10;0.00;;;;;;;19.37;100.00;98214.50;7396559;19;20870;-63
2023/07/27 03:07:40;;;;;;;8.98;0.30;;;;;;;18.80;100.00;98208.81;7394975;19;20006;-63
2023/07/27 03:10:07;;;;;;;0.10;0.10;;;;;;;19.20;100.00;98212.34;7390039;19;20010;-63
2023/07/27 03:12:34;;;;;;;0.10;0.00;;;;;;;20.56;100.00;98208.28;7397134;19;20018;-63
2023/07/27 03:15:00;;;;;;;0.10;0.00;;;;;;;21.42;100.00;98210.91;7393402;19;20473;-63
2023/07/27 03:17:26;;;;;;;0.10;0.10;;;;;;;20.97;100.00;98215.84;7397592;19;20034;-63
2023/07/27 03:19:52;;;;;;;0.10;0.00;;;;;;;21.42;100.00;98213.72;7393997;19;20015;-63
2023/07/27 03:22:18;;;;;;;0.30;0.20;;;;;;;22.27;100.00;98207.53;7395068;19;20396;-63
2023/07/27 03:24:45;;;;;;;0.20;0.00;;;;;;;23.13;100.00;98218.09;7392056;19;20110;-63
2023/07/27 03:27:11;;;;;;;0.30;0.13;;;;;;;24.43;100.00;98211.47;7392352;19;20014;-63
2023/07/27 03:29:37;;;;;;;0.10;0.00;;;;;;;23.97;100.00;98206.94;7392587;19;20381;-63
2023/07/27 03:32:04;;;;;;;0.10;0.10;;;;;;;24.50;100.00;98211.25;7394761;19;20010;-64
2023/07/27 03:34:30;;;;;;;0.00;0.00;;;;;;;24.76;100.00;98215.09;7393431;19;20018;-64
2023/07/27 03:36:56;;;;;;;0.00;0.00;;;;;;;22.66;100.00;98207.53;7395182;19;20018;-64
2023/07/27 03:39:23;;;;;;;6.28;0.32;;;;;;;22.02;100.00;98217.66;7393061;19;20451;-64
2023/07/27 03:41:49;;;;;;;1.00;0.35;;;;;;;26.64;100.00;98201.72;7393001;19;20444;-63
2023/07/27 03:44:15;;;;;;;0.28;0.15;;;;;;;22.57;100.00;98204.09;7393827;19;20339;-63
2023/07/27 03:46:41;;;;;;;0.10;0.00;;;;;;;22.84;100.00;98203.19;7392836;19;20074;-63
2023/07/27 03:49:09;;;;;;;0.00;0.00;;;;;;;23.08;100.00;98216.31;7397213;19;20010;-65
2023/07/27 03:51:35;;;;;;;0.10;0.10;;;;;;;22.07;100.00;98205.28;7391868;19;20018;-65
2023/07/27 03:54:01;;;;;;;10.52;0.57;;;;;;;21.95;100.00;98204.34;7393766;19;20050;-66
2023/07/27 03:56:33;;;;;;;0.43;0.00;;;;;;;22.20;100.00;98211.25;7392643;19;20010;-66
2023/07/27 03:58:59;;;;;;;1.75;0.10;;;;;;;23.42;100.00;98209.47;7394776;19;20415;-65
2023/07/27 04:01:25;;;;;;;0.10;0.10;;;;;;;23.20;100.00;98211.47;7392838;19;20026;-64
2023/07/27 04:03:52;;;;;;;0.28;0.15;;;;;;;21.86;100.00;98211.50;7391984;19;20017;-66
2023/07/27 04:06:18;;;;;;;0.10;0.00;;;;;;;22.19;100.00;98209.78;7393235;19;20413;-63
2023/07/27 04:08:44;;;;;;;0.35;0.30;;;;;;;24.09;100.00;98213.50;7396829;19;20025;-64
2023/07/27 04:11:10;;;;;;;0.10;0.10;;;;;;;23.80;100.00;98215.72;7389879;19;20018;-64
2023/07/27 04:13:37;;;;;;;0.10;0.00;;;;;;;23.85;100.00;98211.81;7396299;19;20053;-63
2023/07/27 04:16:05;;;;;;;0.63;0.10;;;;;;;24.51;100.00;98217.69;7391860;19;20014;-64
2023/07/27 04:18:31;;;;;;;0.45;0.20;;;;;;;22.26;100.00;98210.97;7394160;19;20010;-66
2023/07/27 04:20:57;;;;;;;0.10;0.10;;;;;;;25.56;100.00;98214.53;7392600;19;20007;-65
2023/07/27 04:23:24;;;;;;;8.68;0.30;;;;;;;22.84;100.00;98209.63;7399783;19;20006;-66
2023/07/27 04:25:50;;;;;;;0.05;0.03;;;;;;;27.25;100.00;98212.31;7399598;19;20019;-66
2023/07/27 04:28:16;;;;;;;0.00;0.00;;;;;;;22.97;100.00;98222.59;7401796;19;20015;-65
2023/07/27 04:30:44;;;;;;;0.00;0.00;;;;;;;21.63;100.00;98222.44;7395760;19;20045;-66
2023/07/27 04:33:10;;;;;;;0.10;0.10;;;;;;;20.62;100.00;98219.34;7398841;19;20045;-64
2023/07/27 04:35:36;;;;;;;0.10;0.10;;;;;;;21.92;100.00;98220.47;7399211;19;20504;-65
2023/07/27 04:38:02;;;;;;;0.22;0.13;;;;;;;22.39;100.00;98228.28;7402083;19;20011;-65
2023/07/27 04:40:28;;;;;;;6.32;0.22;;;;;;;23.60;100.00;98225.72;7400102;19;20477;-65
2023/07/27 04:42:54;;;;;;;0.00;0.00;;;;;;;22.93;100.00;98225.91;7400490;19;20025;-65
2023/07/27 04:45:22;;;;;;;0.10;0.00;;;;;;;23.24;100.00;98223.88;7398080;19;20024;-66
2023/07/27 04:47:48;;;;;;;1.08;0.30;;;;;;;22.85;100.00;98230.25;7399304;19;20025;-66
2023/07/27 04:50:14;;;;;;;0.05;0.00;;;;;;;22.98;100.00;98232.59;7398553;19;20018;-65
2023/07/27 04:52:40;;;;;;;0.10;0.10;;;;;;;29.22;100.00;98230.44;7398318;19;20333;-64
2023/07/27 04:55:06;;;;;;;0.57;0.55;;;;;;;22.85;100.00;98224.56;7400007;19;20003;-65
2023/07/27 04:57:33;;;;;;;0.30;0.20;;;;;;;23.38;100.00;98235.53;7398809;19;20090;-65
2023/07/27 04:59:59;;;;;;;1.48;0.20;;;;;;;22.25;100.00;98230.06;7398865;19;20011;-65
2023/07/27 05:02:25;;;;;;;12.80;0.30;;;;;;;21.83;100.00;98235.34;7397987;19;20117;-65
2023/07/27 05:04:51;;;;;;;0.10;0.10;;;;;;;22.45;100.00;98231.59;7399999;19;20460;-65
2023/07/27 05:07:19;;;;;;;1.17;0.43;;;;;;;22.51;100.00;98232.03;7400432;19;20018;-65
2023/07/27 05:09:45;;;;;;;0.08;0.00;;;;;;;22.31;100.00;98236.19;7396907;19;20014;-64
2023/07/27 05:12:11;;;;;;;0.00;0.00;;;;;;;23.60;100.00;98231.41;7400905;19;20019;-64
2023/07/27 05:14:37;;;;;;;0.10;0.10;;;;;;;23.54;100.00;98233.09;7396110;19;20018;-64
2023/07/27 05:17:04;;;;;;;0.00;0.00;;;;;;;24.76;100.00;98243.56;7400836;19;20013;-63
2023/07/27 05:19:30;;;;;;;0.30;0.20;;;;;;;25.79;100.00;98233.00;7403494;19;20006;-64
2023/07/27 05:21:56;;;;;;;0.10;0.00;;;;;;;31.45;100.00;98235.88;7396518;19;20374;-64
2023/07/27 05:24:22;;;;;;;0.00;0.00;;;;;;;25.73;100.00;98236.22;7399030;19;20352;-65
2023/07/27 05:26:48;;;;;;;0.00;0.00;;;;;;;22.57;100.00;98231.72;7397068;19;20021;-65
2023/07/27 05:29:15;;;;;;;0.00;0.00;;;;;;;23.81;100.00;98236.38;7401646;19;20394;-65
2023/07/27 05:31:41;;;;;;;0.00;0.00;;;;;;;31.52;100.00;98226.06;7396481;19;20489;-65
2023/07/27 05:34:08;;;;;;;1.25;0.82;;;;;;;32.66;100.00;98221.59;7396850;19;20014;-65
2023/07/27 05:36:36;;;;;;;0.00;0.00;;;;;;;26.88;100.00;98232.41;7398703;19;20006;-64
2023/07/27 05:39:03;;;;;;;0.00;0.00;;;;;;;27.45;100.00;98224.16;7400427;19;20031;-65
2023/07/27 05:41:30;;;;;;;0.10;0.00;;;;;;;24.82;100.00;98230.47;7399263;19;20015;-65
2023/07/27 05:43:56;;;;;;;0.10;0.00;;;;;;;24.33;100.00;98230.69;7401376;19;20446;-65
2023/07/27 05:46:22;;;;;;;0.00;0.00;;;;;;;23.92;100.00;98233.63;7398023;19;20006;-64
2023/07/27 05:48:48;;;;;;;0.00;0.00;;;;;;;25.69;100.00;98229.53;7400424;19;20375;-65
2023/07/27 05:51:14;;;;;;;0.20;0.10;;;;;;;33.66;96.92;98228.44;7392742;19;20015;-65
2023/07/27 05:53:40;;;;;;;0.00;0.00;;;;;;;29.74;100.00;98224.28;7397536;19;20022;-65
2023/07/27 05:56:07;;;;;;;0.00;0.00;;;;;;;33.67;86.77;98224.88;7396721;19;20015;-65
2023/07/27 05:58:33;;;;;;;0.00;0.00;;;;;;;33.07;89.11;98222.97;7399114;19;20373;-65
2023/07/27 06:01:00;;;;;;;0.10;0.00;;;;;;;25.33;100.00;98237.28;7395996;19;20007;-65
2023/07/27 06:03:31;;;;;;;0.00;0.00;;;;;;;23.89;100.00;98237.69;7397032;19;20018;-65
2023/07/27 06:05:57;;;;;;;0.25;0.25;;;;;;;23.46;100.00;98244.63;7395681;19;20017;-65
2023/07/27 06:08:24;;;;;;;0.00;0.00;;;;;;;23.28;100.00;98246.16;7397975;19;20019;-65
2023/07/27 06:11:03;;;;;;;0.10;0.00;;;;;;;24.80;100.00;98250.25;7394901;19;20021;-65
2023/07/27 06:13:31;;;;;;;0.20;0.20;;;;;;;22.11;100.00;98237.50;7401232;19;20015;-66
2023/07/27 06:15:57;;;;;;;0.10;0.05;;;;;;;30.57;100.00;98233.69;7396179;19;20022;-65
2023/07/27 06:18:24;;;;;;;0.00;0.00;;;;;;;25.83;100.00;98245.41;7399188;19;20039;-65
2023/07/27 06:20:50;;;;;;;1.80;0.47;;;;;;;28.86;100.00;98237.25;7396011;19;20348;-64
2023/07/27 06:23:16;;;;;;;0.00;0.00;;;;;;;23.50;100.00;98247.72;7395522;19;20021;-65
2023/07/27 06:25:43;;;;;;;0.10;0.10;;;;;;;22.76;100.00;98243.09;7396976;19;20002;-65
2023/07/27 06:28:09;;;;;;;0.00;0.00;;;;;;;23.56;100.00;98253.13;7394091;19;20391;-66
2023/07/27 06:30:36;;;;;;;0.10;0.00;;;;;;;23.47;100.00;98245.38;7394948;19;20586;-66
2023/07/27 06:33:03;;;;;;;0.20;0.00;;;;;;;23.43;100.00;98257.19;7395599;19;20035;-65
2023/07/27 06:35:29;;;;;;;0.00;0.00;;;;;;;23.43;100.00;98260.03;7396489;19;20347;-64
2023/07/27 06:37:55;;;;;;;0.10;0.00;;;;;;;30.98;100.00;98250.50;7396629;19;20011;-64
2023/07/27 06:40:21;;;;;;;0.10;0.00;;;;;;;25.70;100.00;98265.25;7394768;19;20011;-64
2023/07/27 06:42:48;;;;;;;0.10;0.00;;;;;;;24.18;100.00;98265.25;7396851;19;20060;-64
2023/07/27 06:45:14;;;;;;;0.00;0.00;;;;;;;24.92;100.00;98261.72;7394113;19;20367;-64
2023/07/27 06:47:40;;;;;;;0.03;0.00;;;;;;;36.53;82.36;98245.63;7396640;19;20006;-63
2023/07/27 06:50:07;;;;;;;0.00;0.00;;;;;;;24.60;100.00;98265.25;7393607;19;20022;-64
2023/07/27 06:52:33;;;;;;;0.10;0.00;;;;;;;24.33;100.00;98257.06;7396229;19;20014;-59
2023/07/27 06:54:59;;;;;;;0.00;0.00;;;;;;;24.32;100.00;98266.22;7394949;19;20023;-59
2023/07/27 06:57:26;;;;;;;0.08;0.00;;;;;;;24.30;100.00;98263.22;7396181;19;20023;-59
2023/07/27 06:59:52;;;;;;;0.40;0.10;;;;;;;25.26;100.00;98261.06;7395158;19;20018;-60
2023/07/27 07:02:19;;;;;;;0.05;0.00;;;;;;;25.68;100.00;98259.41;7394616;19;20074;-59
2023/07/27 07:04:46;;;;;;;0.10;0.10;;;;;;;25.96;100.00;98267.63;7399951;19;20065;-59
2023/07/27 07:07:13;;;;;;;0.00;0.00;;;;;;;24.67;100.00;98269.97;7395497;19;20018;-60
2023/07/27 07:09:39;;;;;;;0.10;0.00;;;;;;;25.57;100.00;98266.59;7394317;19;20074;-59
2023/07/27 07:12:06;;;;;;;0.65;0.25;;;;;;;26.87;100.00;98261.63;7395811;19;20007;-60
2023/07/27 07:14:32;;;;;;;0.10;0.10;;;;;;;26.68;100.00;98271.22;7394712;19;20455;-60
2023/07/27 07:17:00;;;;;;;2.65;0.30;;;;;;;24.38;100.00;98272.31;7397246;19;20085;-60
2023/07/27 07:19:26;;;;;;;0.10;0.00;;;;;;;24.24;100.00;98279.88;7399421;19;20022;-60
2023/07/27 07:21:53;;;;;;;0.00;0.00;;;;;;;23.93;100.00;98271.34;7394614;19;20018;-60
2023/07/27 07:24:19;;;;;;;0.00;0.00;;;;;;;23.92;100.00;98279.13;7394783;19;20014;-60
2023/07/27 07:26:45;;;;;;;0.00;0.00;;;;;;;23.21;100.00;98278.31;7394062;19;20022;-60
2023/07/27 07:29:12;;;;;;;0.68;0.10;;;;;;;23.39;100.00;98278.91;7397725;19;20443;-60
2023/07/27 07:31:38;;;;;;;0.00;0.00;;;;;;;22.48;100.00;98280.72;7391766;19;20027;-60
2023/07/27 07:34:04;;;;;;;0.10;0.10;;;;;;;22.92;100.00;98277.59;7392216;19;20488;-60
2023/07/27 07:36:31;;;;;;;3.63;0.52;;;;;;;23.57;100.00;98280.91;7393564;19;20018;-60
2023/07/27 07:38:57;;;;;;;0.10;0.00;;;;;;;24.40;100.00;98278.88;7397328;19;20021;-60
2023/07/27 07:41:23;;;;;;;0.00;0.00;;;;;;;24.29;100.00;98281.66;7392617;19;20018;-60
2023/07/27 07:43:49;;;;;;;0.10;0.00;;;;;;;24.94;100.00;98278.94;7396440;19;20015;-60
2023/07/27 07:46:15;;;;;;;0.00;0.00;;;;;;;24.81;100.00;98279.50;7393511;19;20010;-61
2023/07/27 07:48:41;;;;;;;0.10;0.00;;;;;;;25.09;100.00;98281.34;7396460;19;20034;-61
2023/07/27 07:51:12;;;;;;;0.30;0.00;;;;;;;26.10;100.00;98273.44;7390309;19;20074;-61
2023/07/27 07:53:39;;;;;;;0.10;0.05;;;;;;;26.12;100.00;98279.28;7393863;19;20069;-61
2023/07/27 07:56:11;;;;;;;0.00;0.00;;;;;;;25.75;100.00;98278.41;7391790;19;20015;-61
2023/07/27 07:58:38;;;;;;;0.10;0.00;;;;;;;26.80;100.00;98277.66;7394214;19;20010;-61
2023/07/27 08:01:04;;;;;;;0.20;0.08;;;;;;;28.77;100.00;98272.63;7392632;19;20352;-61
2023/07/27 08:03:30;;;;;;;0.10;0.10;;;;;;;28.63;100.00;98271.94;7393892;19;20014;-61
2023/07/27 08:05:57;;;;;;;0.82;0.10;;;;;;;31.74;100.00;98272.97;7393800;19;20011;-61
2023/07/27 08:08:23;;;;;;;0.30;0.10;;;;;;;30.13;100.00;98281.31;7395998;19;20007;-61
2023/07/27 08:10:49;;;;;;;0.00;0.00;;;;;;;32.00;100.00;98279.75;7390120;19;20024;-61
2023/07/27 08:13:15;;;;;;;0.00;0.00;;;;;;;30.98;100.00;98285.03;7395397;19;20039;-61
2023/07/27 08:15:51;;;;;;;0.00;0.00;;;;;;;28.62;100.00;98279.03;7392484;19;20011;-61
2023/07/27 08:18:17;;;;;;;0.00;0.00;;;;;;;29.42;100.00;98280.16;7394300;19;20011;-61
2023/07/27 08:20:43;;;;;;;0.00;0.00;;;;;;;28.17;100.00;98278.84;7392431;19;20010;-61
2023/07/27 08:23:09;;;;;;;0.10;0.00;;;;;;;36.20;91.28;98276.16;7392190;19;20467;-61
2023/07/27 08:25:39;;;;;;;0.10;0.00;;;;;;;29.85;100.00;98285.78;7392456;19;20015;-61
2023/07/27 08:28:05;;;;;;;0.10;0.10;;;;;;;27.92;100.00;98290.34;7393387;19;20010;-61
2023/07/27 08:30:34;;;;;;;0.08;0.00;;;;;;;25.80;100.00;98289.44;7390530;19;20010;-60
2023/07/27 08:33:00;;;;;;;0.00;0.00;;;;;;;24.79;100.00;98287.91;7392296;19;20021;-61
2023/07/27 08:35:26;;;;;;;0.50;0.40;;;;;;;23.66;100.00;98291.50;7392094;19;20478;-61
2023/07/27 08:37:53;;;;;;;0.15;0.03;;;;;;;26.42;100.00;98286.06;7393555;19;20015;-61
2023/07/27 08:40:19;;;;;;;0.10;0.00;;;;;;;28.67;100.00;98277.88;7391549;19;20011;-61
2023/07/27 08:42:45;;;;;;;0.00;0.00;;;;;;;27.60;100.00;98300.78;7394260;19;20029;-61
2023/07/27 08:45:18;;;;;;;0.00;0.00;;;;;;;27.79;100.00;98291.81;7392057;19;20018;-60
2023/07/27 08:47:45;;;;;;;0.05;0.03;;;;;;;28.07;100.00;98299.06;7394174;19;20002;-62
2023/07/27 08:50:13;;;;;;;0.00;0.00;;;;;;;27.30;100.00;98299.06;7391547;19;20039;-62
2023/07/27 08:52:39;;;;;;;0.10;0.00;;;;;;;26.08;100.00;98296.13;7390402;19;20019;-63
2023/07/27 08:55:05;;;;;;;0.10;0.00;;;;;;;24.52;100.00;98298.84;7391464;19;20015;-62
2023/07/27 08:57:32;;;;;;;2.70;0.10;;;;;;;24.72;100.00;98297.38;7391576;19;20018;-62
2023/07/27 08:59:58;;;;;;;0.10;0.03;;;;;;;25.72;100.00;98302.44;7391116;19;20015;-63
2023/07/27 09:02:24;;;;;;;0.10;0.00;;;;;;;25.22;100.00;98306.41;7390082;19;20034;-62
2023/07/27 09:04:50;;;;;;;0.00;0.00;;;;;;;25.66;100.00;98307.78;7392412;19;20015;-62
2023/07/27 09:07:16;;;;;;;0.10;0.00;;;;;;;39.72;86.87;98288.97;7390727;19;20422;-62
2023/07/27 09:09:51;;;;;;;0.10;0.10;;;;;;;27.23;100.00;98297.97;7396603;19;20019;-62
2023/07/27 09:12:18;;;;;;;1.73;0.08;;;;;;;26.45;100.00;98302.69;7400577;19;20039;-63
2023/07/27 09:14:45;;;;;;;0.13;0.00;;;;;;;25.66;100.00;98299.22;7397762;19;20019;-63
2023/07/27 09:17:14;;;;;;;0.10;0.00;;;;;;;25.34;100.00;98301.47;7402497;19;20011;-63
2023/07/27 09:19:42;;;;;;;0.10;0.10;;;;;;;25.42;100.00;98301.28;7397714;19;20463;-61
2023/07/27 09:22:10;;;;;;;0.08;0.00;;;;;;;25.95;100.00;98302.44;7398343;19;20010;-62
2023/07/27 09:24:37;;;;;;;0.00;0.00;;;;;;;25.92;100.00;98295.16;7399690;19;20507;-60
2023/07/27 09:27:09;;;;;;;0.10;0.00;;;;;;;26.50;100.00;98306.53;7397523;19;20011;-62
2023/07/27 09:29:36;;;;;;;0.10;0.00;;;;;;;27.34;100.00;98296.44;7396310;19;20019;-62
2023/07/27 09:32:04;;;;;;;0.10;0.10;;;;;;;27.94;100.00;98305.50;7397816;19;20014;-62
2023/07/27 09:34:32;;;;;;;0.00;0.00;;;;;;;29.03;100.00;98302.59;7397189;19;20066;-62
2023/07/27 09:37:02;;;;;;;0.00;0.00;;;;;;;28.99;100.00;98313.88;7398802;19;20467;-62
2023/07/27 09:39:33;;;;;;;0.38;0.00;;;;;;;29.14;100.00;98316.06;7396824;19;20015;-60
2023/07/27 09:41:59;;;;;;;0.20;0.10;;;;;;;27.94;100.00;98314.09;7400631;19;20591;-59
2023/07/27 09:44:25;;;;;;;0.20;0.10;;;;;;;27.71;100.00;98314.25;7399515;19;20019;-59
2023/07/27 09:46:52;;;;;;;0.30;0.10;;;;;;;25.78;100.00;98319.94;7396692;19;20011;-60
2023/07/27 09:49:18;;;;;;;1.30;0.00;;;;;;;24.33;100.00;98324.59;7399797;19;20018;-60
2023/07/27 09:51:46;;;;;;;0.00;0.00;;;;;;;24.52;100.00;98327.31;7397476;19;20010;-59
2023/07/27 09:54:13;;;;;;;0.10;0.10;;;;;;;24.55;100.00;98324.03;7397513;19;20044;-60
2023/07/27 09:56:39;;;;;;;0.13;0.10;;;;;;;25.30;100.00;98326.88;7397601;19;20011;-60
2023/07/27 09:59:06;;;;;;;0.20;0.10;;;;;;;25.88;100.00;98324.16;7396738;19;20007;-60
2023/07/27 10:01:34;;;;;;;2.33;0.52;;;;;;;26.76;100.00;98326.00;7399941;19;20011;-60
2023/07/27 10:04:00;;;;;;;0.10;0.00;;;;;;;26.06;100.00;98321.69;7396734;19;20076;-60
2023/07/27 10:06:27;;;;;;;2.10;0.10;;;;;;;25.07;100.00;98323.94;7396801;19;20011;-60
2023/07/27 10:08:54;;;;;;;0.30;0.10;;;;;;;26.40;100.00;98320.94;7397491;19;20459;-60
2023/07/27 10:11:29;;;;;;;0.20;0.10;;;;;;;27.28;100.00;98318.97;7394452;19;20089;-60
2023/07/27 10:13:57;;;;;;;0.43;0.10;;;;;;;28.39;100.00;98323.69;7400163;19;20018;-60
2023/07/27 10:16:27;;;;;;;0.25;0.00;;;;;;;28.09;100.00;98339.25;7398902;19;20014;-60
2023/07/27 10:18:55;;;;;;;;;;;;;;;28.88;100.00;98332.69;7397174;19;20019;-59
2023/07/27 10:21:23;;;;;;;5.57;0.20;;;;;;;28.03;100.00;98350.38;7396912;19;19934;-59
2023/07/27 10:24:00;;;;;;;0.10;0.00;;;;;;;26.88;100.00;98357.38;7394894;19;20014;-59
2023/07/27 10:26:52;;;;;;;1.17;0.13;;;;;;;28.08;100.00;98357.81;7401135;19;20011;-59
2023/07/27 10:29:26;;;;;;;0.15;0.15;;;;;;;26.72;100.00;98365.72;7396568;19;20029;-59
2023/07/27 10:32:22;;;;;;;0.10;0.00;;;;;;;30.01;100.00;98363.31;7397096;19;20015;-59
2023/07/27 10:34:51;;;;;;;0.10;0.10;;;;;;;29.99;100.00;98364.69;7395340;19;20462;-59
2023/07/27 10:37:18;;;;;;;0.10;0.10;;;;;;;23.97;100.00;98371.91;7398134;19;20325;-59
2023/07/27 10:39:47;;;;;;;0.80;0.10;;;;;;;24.03;100.00;98372.34;7396877;19;20027;-59
2023/07/27 10:42:16;;;;;;;0.47;0.10;;;;;;;24.78;100.00;98377.53;7395362;19;20018;-59
2023/07/27 10:44:49;;;;;;;0.40;0.20;;;;;;;26.04;100.00;98381.47;7393777;19;20420;-59
2023/07/27 10:47:19;;;;;;;0.47;0.10;;;;;;;26.25;100.00;98378.53;7397266;19;20018;-59
2023/07/27 10:49:47;;;;;;;0.10;0.08;;;;;;;24.96;100.00;98373.06;7394986;19;20361;-60
2023/07/27 10:52:19;;;;;;;0.40;0.10;;;;;;;24.12;100.00;98370.84;7396002;19;20499;-60
2023/07/27 10:54:47;;;;;;;0.10;0.00;;;;;;;25.08;100.00;98382.41;7396020;19;20007;-60
2023/07/27 10:57:15;;;;;;;0.08;0.00;;;;;;;24.92;100.00;98378.50;7394891;19;20017;-59
2023/07/27 10:59:44;;;;;;;0.10;0.10;;;;;;;25.03;100.00;98372.13;7396072;19;20015;-61
2023/07/27 11:02:10;;;;;;;0.20;0.10;;;;;;;27.43;100.00;98367.03;7394523;19;20011;-60
2023/07/27 11:04:39;;;;;;;0.10;0.00;;;;;;;29.86;100.00;98367.66;7393426;19;20011;-61
2023/07/27 11:07:06;;;;;;;0.10;0.00;;;;;;;25.64;100.00;98373.22;7393098;19;20022;-61
2023/07/27 11:09:32;;;;;;;0.28;0.10;;;;;;;28.38;100.00;98356.59;7395882;19;20014;-61
2023/07/27 11:12:00;;;;;;;0.10;0.00;;;;;;;28.65;100.00;98360.84;7394992;19;20023;-63
2023/07/27 11:14:27;;;;;;;0.20;0.10;;;;;;;27.72;100.00;98361.53;7394195;19;20397;-64
2023/07/27 11:16:53;;;;;;;0.38;0.10;;;;;;;26.49;100.00;98368.59;7396725;19;20349;-62
2023/07/27 11:19:23;;;;;;;0.77;0.30;;;;;;;28.25;100.00;98363.03;7399149;19;20014;-63
2023/07/27 11:21:50;;;;;;;2.43;0.30;;;;;;;29.16;100.00;98362.06;7392663;19;20011;-62
2023/07/27 11:24:19;;;;;;;0.25;0.05;;;;;;;28.11;100.00;98368.00;7392902;19;20011;-62
2023/07/27 11:26:45;;;;;;;2.85;0.10;;;;;;;29.75;100.00;98363.56;7393507;19;20006;-62
2023/07/27 11:29:12;;;;;;;0.30;0.10;;;;;;;28.93;100.00;98368.03;7396071;19;20018;-63